createdAt,value
2023-04-17T00:01:45.232Z,100.00
2023-04-17T00:04:13.621Z,100.00
2023-04-17T00:06:45.236Z,100.00
2023-04-17T00:09:13.714Z,100.00
2023-04-17T00:11:42.152Z,100.00
2023-04-17T00:14:10.446Z,100.00
2023-04-17T00:16:38.781Z,100.00
2023-04-17T00:19:07.055Z,100.00
2023-04-17T00:21:35.434Z,100.00
2023-04-17T00:24:03.707Z,100.00
2023-04-17T00:26:34.981Z,100.00
2023-04-17T00:29:03.859Z,100.00
2023-04-17T00:31:32.309Z,100.00
2023-04-17T00:34:01.508Z,100.00
2023-04-17T00:36:31.995Z,100.00
2023-04-17T00:39:00.610Z,100.00
2023-04-17T00:41:28.915Z,100.00
2023-04-17T00:43:57.205Z,100.00
2023-04-17T00:46:25.560Z,100.00
2023-04-17T00:48:54.165Z,100.00
2023-04-17T00:51:22.488Z,100.00
2023-04-17T00:53:51.612Z,100.00
2023-04-17T00:56:20.091Z,100.00
2023-04-17T00:58:49.415Z,100.00
2023-04-17T01:01:18.143Z,100.00
2023-04-17T01:03:46.962Z,100.00
2023-04-17T01:06:16.834Z,100.00
2023-04-17T01:08:46.033Z,100.00
2023-04-17T01:11:14.330Z,100.00
2023-04-17T01:13:50.134Z,100.00
2023-04-17T01:16:20.527Z,100.00
2023-04-17T01:18:49.484Z,100.00
2023-04-17T01:21:18.017Z,100.00
2023-04-17T01:23:53.286Z,100.00
2023-04-17T01:26:26.277Z,100.00
2023-04-17T01:28:59.636Z,100.00
2023-04-17T01:31:29.431Z,100.00
2023-04-17T01:33:57.790Z,100.00
2023-04-17T01:36:27.277Z,100.00
2023-04-17T01:38:55.513Z,100.00
2023-04-17T01:41:23.853Z,100.00
2023-04-17T01:43:52.074Z,100.00
2023-04-17T01:46:20.558Z,100.00
2023-04-17T01:48:50.449Z,100.00
2023-04-17T01:51:18.729Z,100.00
2023-04-17T01:53:47.005Z,100.00
2023-04-17T01:56:15.222Z,100.00
2023-04-17T01:58:43.686Z,100.00
2023-04-17T02:01:12.140Z,100.00
2023-04-17T02:03:40.582Z,100.00
2023-04-17T02:06:09.380Z,100.00
2023-04-17T02:08:38.232Z,100.00
2023-04-17T02:11:06.625Z,100.00
2023-04-17T02:13:34.924Z,100.00
2023-04-17T02:16:04.657Z,100.00
2023-04-17T02:18:36.314Z,100.00
2023-04-17T02:21:04.620Z,100.00
2023-04-17T02:23:33.130Z,100.00
2023-04-17T02:26:01.372Z,100.00
2023-04-17T02:28:29.589Z,100.00
2023-04-17T02:30:57.987Z,100.00
2023-04-17T02:33:26.383Z,100.00
2023-04-17T02:35:54.857Z,100.00
2023-04-17T02:38:31.756Z,100.00
2023-04-17T02:41:00.711Z,100.00
2023-04-17T02:43:31.817Z,100.00
2023-04-17T02:46:01.267Z,100.00
2023-04-17T02:48:29.544Z,100.00
2023-04-17T02:50:57.939Z,100.00
2023-04-17T02:53:26.330Z,100.00
2023-04-17T02:55:54.555Z,100.00
2023-04-17T02:58:25.240Z,100.00
2023-04-17T03:01:03.164Z,100.00
2023-04-17T03:03:35.742Z,100.00
2023-04-17T03:06:08.930Z,100.00
2023-04-17T03:08:38.806Z,100.00
2023-04-17T03:11:07.448Z,100.00
2023-04-17T03:13:38.664Z,100.00
2023-04-17T03:16:07.329Z,100.00
2023-04-17T03:18:42.030Z,100.00
2023-04-17T03:21:10.560Z,100.00
2023-04-17T03:23:38.768Z,100.00
2023-04-17T03:26:08.437Z,100.00
2023-04-17T03:28:36.728Z,100.00
2023-04-17T03:31:06.619Z,100.00
2023-04-17T03:33:37.954Z,100.00
2023-04-17T03:36:06.767Z,100.00
2023-04-17T03:38:37.935Z,100.00
2023-04-17T03:41:09.039Z,100.00
2023-04-17T03:43:37.354Z,100.00
2023-04-17T03:46:05.677Z,100.00
2023-04-17T03:48:34.181Z,100.00
2023-04-17T03:51:03.048Z,100.00
2023-04-17T03:53:32.190Z,100.00
2023-04-17T03:56:03.882Z,100.00
2023-04-17T03:58:36.914Z,100.00
2023-04-17T04:01:10.932Z,100.00
2023-04-17T04:03:45.659Z,100.00
2023-04-17T04:06:14.354Z,100.00
2023-04-17T04:08:42.590Z,100.00
2023-04-17T04:11:10.915Z,100.00
2023-04-17T04:13:40.968Z,100.00
2023-04-17T04:16:10.482Z,100.00
2023-04-17T04:18:41.799Z,100.00
2023-04-17T04:21:12.161Z,100.00
2023-04-17T04:23:45.609Z,100.00
2023-04-17T04:26:17.119Z,100.00
2023-04-17T04:28:52.124Z,100.00
2023-04-17T04:31:51.090Z,100.00
2023-04-17T04:34:25.846Z,100.00
2023-04-17T04:36:54.606Z,100.00
2023-04-17T04:39:43.477Z,100.00
2023-04-17T04:42:22.459Z,100.00
2023-04-17T04:45:00.963Z,100.00
2023-04-17T04:47:31.967Z,100.00
2023-04-17T04:50:00.357Z,100.00
2023-04-17T04:52:28.607Z,100.00
2023-04-17T04:55:01.606Z,100.00
2023-04-17T04:57:31.698Z,100.00
2023-04-17T05:00:02.623Z,100.00
2023-04-17T05:02:37.410Z,100.00
2023-04-17T05:05:09.682Z,100.00
2023-04-17T05:07:38.396Z,100.00
2023-04-17T05:10:09.648Z,100.00
2023-04-17T05:12:42.407Z,100.00
2023-04-17T05:15:13.033Z,100.00
2023-04-17T05:17:41.916Z,100.00
2023-04-17T05:20:12.311Z,100.00
2023-04-17T05:22:48.212Z,100.00
2023-04-17T05:25:17.075Z,100.00
2023-04-17T05:27:46.314Z,100.00
2023-04-17T05:30:15.510Z,100.00
2023-04-17T05:32:48.603Z,100.00
2023-04-17T05:35:43.104Z,100.00
2023-04-17T05:38:11.478Z,100.00
2023-04-17T05:40:39.709Z,100.00
2023-04-17T05:43:09.357Z,100.00
2023-04-17T05:45:38.561Z,100.00
2023-04-17T05:48:10.178Z,100.00
2023-04-17T05:50:38.765Z,100.00
2023-04-17T05:53:07.950Z,100.00
2023-04-17T05:55:46.614Z,100.00
2023-04-17T05:58:23.573Z,100.00
2023-04-17T06:00:55.297Z,100.00
2023-04-17T06:03:25.932Z,100.00
2023-04-17T06:06:02.387Z,100.00
2023-04-17T06:08:31.882Z,100.00
2023-04-17T06:11:00.184Z,100.00
2023-04-17T06:13:29.958Z,100.00
2023-04-17T06:15:59.735Z,100.00
2023-04-17T06:18:27.994Z,100.00
2023-04-17T06:20:56.293Z,100.00
2023-04-17T06:23:24.558Z,100.00
2023-04-17T06:25:53.018Z,100.00
2023-04-17T06:28:21.253Z,100.00
2023-04-17T06:30:52.791Z,100.00
2023-04-17T06:33:21.282Z,100.00
2023-04-17T06:35:49.476Z,100.00
2023-04-17T06:38:35.038Z,100.00
2023-04-17T06:41:03.787Z,100.00
2023-04-17T06:43:32.062Z,100.00
2023-04-17T06:46:12.094Z,100.00
2023-04-17T06:48:40.375Z,100.00
2023-04-17T06:51:08.592Z,100.00
2023-04-17T06:53:36.840Z,100.00
2023-04-17T06:56:05.523Z,100.00
2023-04-17T06:58:33.779Z,100.00
2023-04-17T07:01:02.055Z,100.00
2023-04-17T07:03:31.019Z,100.00
2023-04-17T07:05:59.422Z,100.00
2023-04-17T07:08:27.699Z,100.00
2023-04-17T07:10:55.973Z,100.00
2023-04-17T07:13:24.340Z,100.00
2023-04-17T07:15:56.853Z,100.00
2023-04-17T07:18:26.976Z,100.00
2023-04-17T07:20:56.375Z,100.00
2023-04-17T07:23:24.674Z,100.00
2023-04-17T07:25:53.055Z,100.00
2023-04-17T07:28:21.515Z,100.00
2023-04-17T07:30:49.723Z,100.00
2023-04-17T07:33:17.921Z,100.00
2023-04-17T07:35:46.226Z,100.00
2023-04-17T07:38:14.543Z,100.00
2023-04-17T07:40:43.254Z,100.00
2023-04-17T07:43:11.637Z,100.00
2023-04-17T07:45:41.720Z,100.00
2023-04-17T07:48:11.129Z,100.00
2023-04-17T07:50:39.643Z,100.00
2023-04-17T07:53:08.128Z,100.00
2023-04-17T07:55:36.331Z,100.00
2023-04-17T07:58:04.616Z,100.00
2023-04-17T08:00:33.434Z,100.00
2023-04-17T08:03:02.231Z,100.00
2023-04-17T08:05:31.123Z,100.00
2023-04-17T08:08:02.398Z,100.00
2023-04-17T08:10:30.993Z,100.00
2023-04-17T08:13:00.323Z,100.00
2023-04-17T08:15:28.754Z,100.00
2023-04-17T08:18:00.306Z,100.00
2023-04-17T08:20:28.622Z,100.00
2023-04-17T08:22:57.077Z,100.00
2023-04-17T08:25:25.482Z,100.00
2023-04-17T08:27:53.724Z,100.00
2023-04-17T08:30:22.072Z,100.00
2023-04-17T08:32:52.290Z,100.00
2023-04-17T08:35:20.893Z,100.00
2023-04-17T08:37:49.221Z,100.00
2023-04-17T08:40:18.839Z,100.00
2023-04-17T08:42:47.955Z,100.00
2023-04-17T08:45:17.485Z,100.00
2023-04-17T08:47:45.817Z,100.00
2023-04-17T08:50:20.373Z,100.00
2023-04-17T08:52:50.971Z,100.00
2023-04-17T08:55:22.469Z,100.00
2023-04-17T08:57:58.663Z,100.00
2023-04-17T09:00:31.249Z,100.00
2023-04-17T09:03:01.764Z,100.00
2023-04-17T09:05:35.241Z,100.00
2023-04-17T09:08:08.042Z,100.00
2023-04-17T09:10:44.185Z,100.00
2023-04-17T09:13:16.613Z,100.00
2023-04-17T09:15:46.557Z,100.00
2023-04-17T09:18:31.127Z,100.00
2023-04-17T09:21:01.029Z,100.00
2023-04-17T09:23:31.821Z,100.00
2023-04-17T09:26:10.911Z,100.00
2023-04-17T09:28:40.013Z,100.00
2023-04-17T09:31:27.115Z,100.00
2023-04-17T09:34:04.117Z,100.00
2023-04-17T09:36:34.739Z,100.00
2023-04-17T09:39:18.088Z,100.00
2023-04-17T09:41:46.615Z,100.00
2023-04-17T09:44:27.959Z,100.00
2023-04-17T09:46:57.016Z,100.00
2023-04-17T09:49:42.359Z,100.00
2023-04-17T09:52:13.141Z,100.00
2023-04-17T09:54:42.801Z,100.00
2023-04-17T09:57:13.093Z,100.00
2023-04-17T09:59:48.033Z,100.00
2023-04-17T10:02:19.973Z,100.00
2023-04-17T10:04:48.772Z,100.00
2023-04-17T10:07:18.013Z,100.00
2023-04-17T10:09:46.973Z,100.00
2023-04-17T10:12:20.481Z,100.00
2023-04-17T10:14:51.689Z,100.00
2023-04-17T10:17:37.285Z,100.00
2023-04-17T10:20:20.270Z,100.00
2023-04-17T10:23:49.389Z,53.59
2023-04-17T10:26:27.289Z,54.96
2023-04-17T10:28:59.763Z,54.81
2023-04-17T10:32:05.403Z,54.15
2023-04-17T10:34:37.845Z,53.23
2023-04-17T10:37:06.254Z,53.21
2023-04-17T10:39:59.881Z,49.28
2023-04-17T10:42:30.543Z,50.71
2023-04-17T10:45:01.756Z,52.03
2023-04-17T10:47:34.939Z,48.48
2023-04-17T10:50:05.337Z,52.79
2023-04-17T10:52:34.677Z,50.29
2023-04-17T10:55:17.454Z,51.61
2023-04-17T10:58:03.465Z,49.01
2023-04-17T11:00:38.314Z,49.53
2023-04-17T11:03:07.654Z,49.85
2023-04-17T11:05:36.206Z,49.49
2023-04-17T11:08:05.763Z,46.60
2023-04-17T11:10:37.400Z,48.27
2023-04-17T11:13:06.095Z,45.56
2023-04-17T11:15:35.740Z,45.30
2023-04-17T11:18:04.612Z,45.27
2023-04-17T11:20:36.324Z,46.49
2023-04-17T11:23:06.141Z,46.64
2023-04-17T11:25:34.980Z,44.88
2023-04-17T11:28:06.167Z,45.30
2023-04-17T11:30:36.465Z,47.93
2023-04-17T11:33:07.752Z,45.41
2023-04-17T11:35:38.375Z,43.45
2023-04-17T11:38:17.894Z,46.91
2023-04-17T11:40:51.167Z,45.36
2023-04-17T11:43:23.798Z,45.29
2023-04-17T11:45:54.249Z,45.23
2023-04-17T11:48:24.731Z,48.17
2023-04-17T11:51:01.353Z,46.40
2023-04-17T11:53:30.635Z,45.12
2023-04-17T11:56:20.973Z,44.44
2023-04-17T11:58:54.056Z,45.83
2023-04-17T12:01:25.016Z,44.68
2023-04-17T12:03:58.790Z,44.01
2023-04-17T12:06:37.695Z,43.57
2023-04-17T12:09:07.245Z,46.03
2023-04-17T12:11:36.100Z,43.40
2023-04-17T12:14:05.520Z,45.46
2023-04-17T12:16:33.923Z,46.27
2023-04-17T12:19:02.238Z,45.48
2023-04-17T12:21:31.613Z,47.29
2023-04-17T12:23:59.888Z,47.90
2023-04-17T12:26:28.607Z,44.84
2023-04-17T12:28:57.935Z,45.11
2023-04-17T12:31:26.247Z,45.54
2023-04-17T12:33:54.554Z,45.93
2023-04-17T12:36:23.019Z,48.05
2023-04-17T12:38:51.316Z,46.81
2023-04-17T12:41:20.106Z,48.35
2023-04-17T12:43:48.309Z,46.14
2023-04-17T12:46:16.753Z,48.62
2023-04-17T12:48:44.963Z,49.58
2023-04-17T12:51:13.446Z,50.29
2023-04-17T12:53:41.716Z,50.23
2023-04-17T12:56:10.351Z,49.26
2023-04-17T12:58:38.614Z,50.77
2023-04-17T13:01:06.853Z,50.96
2023-04-17T13:03:35.416Z,50.44
2023-04-17T13:06:03.991Z,49.06
2023-04-17T13:08:32.197Z,50.20
2023-04-17T13:11:03.658Z,49.76
2023-04-17T13:13:31.940Z,49.00
2023-04-17T13:16:00.312Z,48.49
2023-04-17T13:18:28.482Z,49.91
2023-04-17T13:20:57.744Z,50.17
2023-04-17T13:23:26.031Z,50.05
2023-04-17T13:25:54.293Z,48.97
2023-04-17T13:28:22.522Z,49.36
2023-04-17T13:30:50.935Z,47.59
2023-04-17T13:33:19.215Z,48.74
2023-04-17T13:35:47.466Z,47.55
2023-04-17T13:38:15.686Z,49.45
2023-04-17T13:40:43.856Z,47.55
2023-04-17T13:43:12.135Z,48.19
2023-04-17T13:45:40.616Z,49.11
2023-04-17T13:48:09.018Z,49.43
2023-04-17T13:50:37.235Z,49.09
2023-04-17T13:53:05.550Z,48.88
2023-04-17T13:55:33.955Z,49.92
2023-04-17T13:58:02.206Z,49.07
2023-04-17T14:00:30.519Z,52.63
2023-04-17T14:03:00.188Z,50.53
2023-04-17T14:05:28.566Z,49.66
2023-04-17T14:07:56.949Z,50.54
2023-04-17T14:10:25.301Z,52.14
2023-04-17T14:12:53.651Z,50.53
2023-04-17T14:15:21.899Z,50.91
2023-04-17T14:17:50.203Z,52.16
2023-04-17T14:20:20.031Z,51.01
2023-04-17T14:22:48.444Z,49.97
2023-04-17T14:25:16.716Z,49.85
2023-04-17T14:27:45.453Z,50.38
2023-04-17T14:30:13.922Z,49.88
2023-04-17T14:32:42.183Z,50.00
2023-04-17T14:35:10.798Z,50.61
2023-04-17T14:37:39.049Z,51.33
2023-04-17T14:40:07.883Z,54.17
2023-04-17T14:42:47.461Z,52.25
2023-04-17T14:45:22.116Z,53.06
2023-04-17T14:47:50.656Z,54.63
2023-04-17T14:50:18.945Z,55.05
2023-04-17T14:52:47.255Z,55.13
2023-04-17T14:55:15.543Z,54.60
2023-04-17T14:57:43.904Z,55.97
2023-04-17T15:00:12.688Z,54.37
2023-04-17T15:02:41.108Z,54.50
2023-04-17T15:05:09.914Z,53.85
2023-04-17T15:07:38.103Z,54.10
2023-04-17T15:10:06.710Z,55.10
2023-04-17T15:12:35.001Z,57.42
2023-04-17T15:15:03.484Z,56.47
2023-04-17T15:17:34.266Z,58.00
2023-04-17T15:20:04.091Z,56.75
2023-04-17T15:22:32.722Z,57.50
2023-04-17T15:25:01.075Z,55.46
2023-04-17T15:27:29.357Z,52.43
2023-04-17T15:29:57.570Z,53.26
2023-04-17T15:32:26.711Z,55.13
2023-04-17T15:34:54.998Z,56.01
2023-04-17T15:37:23.340Z,56.37
2023-04-17T15:39:51.639Z,54.32
2023-04-17T15:42:20.054Z,53.96
2023-04-17T15:44:48.626Z,52.93
2023-04-17T15:47:16.996Z,51.79
2023-04-17T15:49:48.046Z,52.55
2023-04-17T15:52:16.468Z,55.23
2023-04-17T15:54:44.990Z,56.26
2023-04-17T15:57:13.206Z,55.32
2023-04-17T15:59:41.435Z,55.64
2023-04-17T16:02:13.554Z,55.34
2023-04-17T16:04:43.757Z,55.88
2023-04-17T16:07:15.646Z,55.72
2023-04-17T16:09:46.492Z,56.05
2023-04-17T16:12:14.853Z,57.45
2023-04-17T16:14:43.254Z,56.51
2023-04-17T16:17:11.461Z,56.03
2023-04-17T16:19:39.688Z,56.39
2023-04-17T16:22:07.850Z,57.59
2023-04-17T16:24:37.603Z,57.96
2023-04-17T16:27:09.304Z,58.80
2023-04-17T16:29:37.734Z,59.06
2023-04-17T16:32:09.021Z,58.79
2023-04-17T16:34:37.595Z,59.90
2023-04-17T16:37:05.930Z,60.93
2023-04-17T16:39:37.483Z,60.88
2023-04-17T16:42:09.139Z,61.24
2023-04-17T16:44:37.667Z,62.08
2023-04-17T16:47:13.910Z,62.78
2023-04-17T16:49:43.142Z,62.60
2023-04-17T16:52:11.412Z,62.94
2023-04-17T16:54:39.690Z,66.06
2023-04-17T16:57:11.190Z,64.40
2023-04-17T16:59:39.605Z,64.52
2023-04-17T17:02:08.373Z,63.58
2023-04-17T17:04:36.775Z,63.65
2023-04-17T17:07:05.126Z,61.58
2023-04-17T17:09:33.420Z,61.75
2023-04-17T17:12:01.739Z,60.69
2023-04-17T17:14:29.953Z,60.00
2023-04-17T17:16:58.348Z,58.80
2023-04-17T17:19:26.835Z,60.97
2023-04-17T17:21:55.350Z,60.57
2023-04-17T17:24:23.551Z,61.23
2023-04-17T17:26:51.845Z,63.28
2023-04-17T17:29:20.078Z,61.58
2023-04-17T17:31:48.378Z,62.58
2023-04-17T17:34:26.245Z,64.08
2023-04-17T17:36:55.457Z,64.44
2023-04-17T17:39:23.684Z,65.95
2023-04-17T17:41:51.957Z,67.76
2023-04-17T17:44:20.430Z,68.28
2023-04-17T17:46:48.726Z,67.65
2023-04-17T17:49:17.506Z,69.20
2023-04-17T17:51:45.756Z,68.87
2023-04-17T17:54:14.193Z,73.49
2023-04-17T17:56:42.660Z,72.65
2023-04-17T17:59:11.715Z,73.91
2023-04-17T18:01:40.584Z,74.93
2023-04-17T18:04:09.064Z,77.71
2023-04-17T18:06:37.579Z,80.42
2023-04-17T18:09:05.834Z,78.04
2023-04-17T18:11:33.987Z,80.73
2023-04-17T18:14:02.208Z,82.16
2023-04-17T18:16:32.768Z,85.17
2023-04-17T18:19:03.597Z,85.51
2023-04-17T18:21:32.562Z,86.00
2023-04-17T18:24:01.938Z,85.59
2023-04-17T18:26:30.323Z,85.80
2023-04-17T18:28:58.518Z,86.18
2023-04-17T18:31:28.306Z,88.32
2023-04-17T18:33:56.744Z,88.04
2023-04-17T18:36:24.945Z,88.84
2023-04-17T18:38:53.138Z,88.63
2023-04-17T18:41:21.514Z,89.03
2023-04-17T18:43:49.873Z,89.15
2023-04-17T18:46:18.686Z,88.78
2023-04-17T18:48:46.924Z,89.41
2023-04-17T18:51:15.303Z,90.63
2023-04-17T18:53:43.712Z,91.02
2023-04-17T18:56:15.061Z,91.50
2023-04-17T18:58:43.576Z,90.79
2023-04-17T19:01:11.906Z,90.95
2023-04-17T19:03:41.208Z,92.29
2023-04-17T19:06:09.992Z,91.46
2023-04-17T19:08:41.240Z,94.24
2023-04-17T19:11:10.286Z,94.05
2023-04-17T19:13:38.877Z,94.14
2023-04-17T19:16:07.203Z,93.97
2023-04-17T19:18:36.399Z,94.95
2023-04-17T19:21:05.763Z,95.73
2023-04-17T19:23:34.194Z,94.66
2023-04-17T19:26:04.273Z,93.89
2023-04-17T19:28:33.507Z,94.76
2023-04-17T19:31:03.497Z,94.76
2023-04-17T19:33:34.149Z,94.76
2023-04-17T19:36:05.219Z,94.76
2023-04-17T19:38:33.571Z,94.76
2023-04-17T19:41:18.878Z,94.76
2023-04-17T19:43:52.818Z,94.76
2023-04-17T19:46:23.191Z,94.76
2023-04-17T19:48:52.478Z,94.92
2023-04-17T19:51:22.196Z,95.93
2023-04-17T19:53:51.789Z,94.75
2023-04-17T19:56:20.437Z,95.29
2023-04-17T19:58:49.776Z,96.13
2023-04-17T20:01:18.297Z,97.33
2023-04-17T20:03:46.676Z,98.41
2023-04-17T20:06:16.008Z,100.00
2023-04-17T20:08:45.125Z,100.00
2023-04-17T20:11:15.083Z,100.00
2023-04-17T20:13:43.663Z,100.00
2023-04-17T20:16:12.018Z,100.00
2023-04-17T20:18:41.720Z,100.00
2023-04-17T20:21:10.295Z,100.00
2023-04-17T20:23:38.591Z,100.00
2023-04-17T20:26:07.322Z,100.00
2023-04-17T20:28:36.139Z,100.00
2023-04-17T20:31:05.181Z,100.00
2023-04-17T20:33:33.562Z,100.00
2023-04-17T20:36:03.410Z,100.00
2023-04-17T20:38:31.714Z,100.00
2023-04-17T20:41:00.068Z,100.00
2023-04-17T20:43:28.384Z,100.00
2023-04-17T20:45:56.978Z,100.00
2023-04-17T20:48:25.761Z,100.00
2023-04-17T20:50:54.062Z,100.00
2023-04-17T20:53:22.306Z,100.00
2023-04-17T20:55:50.638Z,100.00
2023-04-17T20:58:19.433Z,100.00
2023-04-17T21:00:58.365Z,100.00
2023-04-17T21:03:31.051Z,100.00
2023-04-17T21:06:02.478Z,100.00
2023-04-17T21:08:30.969Z,100.00
2023-04-17T21:11:00.736Z,100.00
2023-04-17T21:13:29.379Z,100.00
2023-04-17T21:15:57.765Z,100.00
2023-04-17T21:18:26.259Z,100.00
2023-04-17T21:20:54.569Z,100.00
2023-04-17T21:23:22.926Z,100.00
2023-04-17T21:25:53.681Z,100.00
2023-04-17T21:28:22.151Z,100.00
2023-04-17T21:30:50.542Z,100.00
2023-04-17T21:33:18.863Z,100.00
2023-04-17T21:35:47.130Z,100.00
2023-04-17T21:38:15.485Z,100.00
2023-04-17T21:40:51.079Z,100.00
2023-04-17T21:43:20.051Z,100.00
2023-04-17T21:45:48.337Z,100.00
2023-04-17T21:48:16.881Z,100.00
2023-04-17T21:50:45.165Z,100.00
2023-04-17T21:53:13.564Z,100.00
2023-04-17T21:55:41.834Z,100.00
2023-04-17T21:58:10.093Z,100.00
2023-04-17T22:00:39.890Z,100.00
2023-04-17T22:03:08.396Z,100.00
2023-04-17T22:05:36.976Z,100.00
2023-04-17T22:08:06.231Z,100.00
2023-04-17T22:10:35.604Z,100.00
2023-04-17T22:13:04.011Z,100.00
2023-04-17T22:15:32.397Z,100.00
2023-04-17T22:18:00.852Z,100.00
2023-04-17T22:20:30.408Z,100.00
2023-04-17T22:22:58.881Z,100.00
2023-04-17T22:25:27.254Z,100.00
2023-04-17T22:27:55.613Z,100.00
2023-04-17T22:30:24.154Z,100.00
2023-04-17T22:32:52.652Z,100.00
2023-04-17T22:35:21.565Z,100.00
2023-04-17T22:37:49.902Z,100.00
2023-04-17T22:40:18.331Z,100.00
2023-04-17T22:42:46.790Z,100.00
2023-04-17T22:45:15.166Z,100.00
2023-04-17T22:47:43.525Z,100.00
2023-04-17T22:50:14.415Z,100.00
2023-04-17T22:52:42.830Z,100.00
2023-04-17T22:55:11.300Z,100.00
2023-04-17T22:57:39.624Z,100.00
2023-04-17T23:00:11.818Z,100.00
2023-04-17T23:02:41.804Z,100.00
2023-04-17T23:05:10.399Z,100.00
2023-04-17T23:07:39.514Z,100.00
2023-04-17T23:10:08.387Z,100.00
2023-04-17T23:12:37.477Z,100.00
2023-04-17T23:15:08.330Z,100.00
2023-04-17T23:17:36.787Z,100.00
2023-04-17T23:20:05.526Z,100.00
2023-04-17T23:22:33.968Z,100.00
2023-04-17T23:25:02.918Z,100.00
2023-04-17T23:27:32.107Z,100.00
2023-04-17T23:30:00.850Z,100.00
2023-04-17T23:32:29.238Z,100.00
2023-04-17T23:34:57.656Z,100.00
2023-04-17T23:37:26.422Z,100.00
2023-04-17T23:39:54.745Z,100.00
2023-04-17T23:42:23.118Z,100.00
2023-04-17T23:44:51.457Z,100.00
2023-04-17T23:47:19.781Z,100.00
2023-04-17T23:49:48.357Z,100.00
2023-04-17T23:52:16.807Z,100.00
2023-04-17T23:54:45.225Z,100.00
2023-04-17T23:57:13.537Z,100.00
2023-04-17T23:59:41.884Z,100.00
